Detall de PIREP

Printer-friendly versionPDF version

[2014/10/04 07:52:00]
Flight IATA:CT1030
Pilot Number:012
Company ICAO:CAT
Aircraft Type:B763/F
PAX:0
Departing Airport: BIKF
Destination Airport: EGLL
Alternate Airport:EGUN
Online: VATSIM
Route:ALDAN RATSU UN610 STN UN615 DCS UN57 POL M605 DTY BNN
Flight Level:F370
No Slew and time accel
No pause
Crash detect
Detect pilot in Cockpit between each 30 and 45 minutes
07:52 Zero fuel Weight: 268544 Lbs, Fuel Weight: 42998 Lbs
07:52 VATSIM:BIKF 040730Z 15016KT 9999 VCSH FEW015CB BKN032 BKN120 05/00 Q0985 REGS
07:52 VATSIM:EGLL 040720Z 18009KT 150V220 8000 SCT030 16/14 Q1010 NOSIG
07:52 BOEING TRANSPORT
07:54 Parking Brakes off
08:00 Take-off
08:00 Take off Weight: 309673 Lbs
08:00 Wind: 168º @ 015 Knots Heading: 092º
08:00 POS N63º 59´ 06´´ W022º 37´ 22´´
08:00 Gear Up: 173 Knots
08:00 Flaps:2 at 173 Knots
08:01 Flaps:1 at 183 Knots
08:01 Flaps:0 at 206 Knots
08:15 Wind:241º@034 Knots Heading: 124º Ground Speed: 446 Knots Altitude 34967 ft
08:15 TOC
08:15 Fuel Weight: 34765 Lb
08:30 Wind:245º@036 Knots Heading: 117º Ground Speed: 467 Knots Altitude 36213 ft
08:45 Wind:234º@039 Knots Heading: 121º Ground Speed: 488 Knots Altitude 36574 ft
09:00 Wind:228º@035 Knots Heading: 148º Ground Speed: 466 Knots Altitude 36732 ft
09:15 Wind:210º@045 Knots Heading: 151º Ground Speed: 449 Knots Altitude 36797 ft
09:30 Wind:209º@059 Knots Heading: 163º Ground Speed: 427 Knots Altitude 36811 ft
09:45 Wind:215º@045 Knots Heading: 155º Ground Speed: 435 Knots Altitude 36860 ft
10:00 Wind:209º@052 Knots Heading: 149º Ground Speed: 438 Knots Altitude 36902 ft
10:10 TOD
10:10 Fuel Weight: 16719 Lb
10:15 Wind:207º@068 Knots Heading: 155º Ground Speed: 396 Knots Altitude 23946 ft
10:23 Flaps:1 at 239 Knots
10:26 Flaps:2 at 218 Knots
10:29 Flaps:3 at 215 Knots
10:29 Gear Down: 191 Knots
10:30 Wind:295º@008 Knots Heading: 231º Ground Speed: 187 Knots Altitude 3979 ft
10:31 Flaps:4 at 182 Knots
10:34 Flaps:5 at 155 Knots
10:34 Flaps:6 at 138 Knots
10:35 TouchDown:Rate -139 ft/min Speed: 123 Knots
10:36 VATSIM:EGLL 041020Z 28010KT 9999 FEW011 SCT015 BKN036 14/12 Q1011
10:36 Land
10:36 Wind:291º@006 Knots
10:36 Heading: 269º
10:36 Flight Duration: 02:36
10:36 Landing Weight: 282364 Lbs
10:36 POS N51º 27´ 53´´ W000º 27´ 12´´
10:39 Parking brakes on
10:39 Block to Block Duration: 02:45
10:39 Final Fuel: 13269 Lbls
10:39 Spent Fuel: 29728 Lbls
10:39 Flight Length: 1086 NM
10:39 TOD Land Length: 126 NM

Exportar CSV

Powered by Drupal - Modified by Danger4k